createdAt,value
2023-02-26T00:01:02.974Z,-0.40
2023-02-26T00:03:32.247Z,-0.30
2023-02-26T00:06:01.420Z,-0.30
2023-02-26T00:08:31.333Z,-0.40
2023-02-26T00:11:01.889Z,-0.50
2023-02-26T00:13:30.258Z,-0.50
2023-02-26T00:16:00.538Z,-0.40
2023-02-26T00:18:29.039Z,-0.60
2023-02-26T00:20:58.877Z,-0.40
2023-02-26T00:23:27.143Z,-0.50
2023-02-26T00:25:55.122Z,-0.40
2023-02-26T00:28:23.615Z,-0.40
2023-02-26T00:30:51.887Z,-0.40
2023-02-26T00:33:20.374Z,-0.40
2023-02-26T00:35:48.220Z,-0.40
2023-02-26T00:38:17.759Z,-0.40
2023-02-26T00:40:46.401Z,-0.50
2023-02-26T00:43:16.505Z,-0.60
2023-02-26T00:45:46.544Z,-0.50
2023-02-26T00:48:38.319Z,-0.50
2023-02-26T00:51:09.581Z,-0.40
2023-02-26T00:53:42.146Z,-0.50
2023-02-26T00:56:09.978Z,-0.40
2023-02-26T00:58:37.886Z,-0.40
2023-02-26T01:01:06.016Z,-0.70
2023-02-26T01:03:34.121Z,-0.70
2023-02-26T01:06:02.233Z,-0.70
2023-02-26T01:08:32.372Z,0.50
2023-02-26T01:11:02.103Z,0.20
2023-02-26T01:13:30.312Z,-0.50
2023-02-26T01:16:03.245Z,-0.60
2023-02-26T01:18:34.081Z,-0.70
2023-02-26T01:21:03.766Z,-0.80
2023-02-26T01:23:32.800Z,-0.80
2023-02-26T01:26:03.375Z,-0.80
2023-02-26T01:28:32.221Z,-0.80
2023-02-26T01:31:05.272Z,-0.90
2023-02-26T01:33:34.571Z,-0.90
2023-02-26T01:36:04.639Z,-0.70
2023-02-26T01:38:37.873Z,-0.90
2023-02-26T01:41:14.498Z,-1.00
2023-02-26T01:43:46.988Z,-0.90
2023-02-26T01:46:17.331Z,-1.00
2023-02-26T01:48:50.588Z,-1.00
2023-02-26T01:51:18.739Z,-1.00
2023-02-26T01:53:46.659Z,-0.80
2023-02-26T01:56:17.753Z,-0.90
2023-02-26T01:58:46.150Z,-0.80
2023-02-26T02:01:14.018Z,-0.80
2023-02-26T02:03:42.366Z,-0.80
2023-02-26T02:06:12.095Z,-0.70
2023-02-26T02:08:39.995Z,-0.70
2023-02-26T02:11:09.163Z,-0.80
2023-02-26T02:13:42.859Z,-0.90
2023-02-26T02:16:18.970Z,-1.10
2023-02-26T02:18:52.532Z,-1.10
2023-02-26T02:22:03.538Z,-1.10
2023-02-26T02:24:36.764Z,-1.10
2023-02-26T02:27:08.990Z,-1.00
2023-02-26T02:29:50.242Z,-0.90
2023-02-26T02:32:20.263Z,-0.80
2023-02-26T02:34:49.875Z,-0.90
2023-02-26T02:37:19.174Z,-1.10
2023-02-26T02:39:48.770Z,-0.90
2023-02-26T02:42:21.727Z,-0.80
2023-02-26T02:44:52.441Z,-1.10
2023-02-26T02:47:21.754Z,-1.00
2023-02-26T02:49:52.603Z,-1.00
2023-02-26T02:52:22.267Z,-1.00
2023-02-26T02:54:52.276Z,-0.90
2023-02-26T02:57:22.095Z,-1.10
2023-02-26T02:59:50.907Z,-1.20
2023-02-26T03:02:20.912Z,-1.20
2023-02-26T03:04:48.871Z,-1.30
2023-02-26T03:07:16.719Z,-1.30
2023-02-26T03:09:44.542Z,-1.10
2023-02-26T03:12:12.417Z,-1.10
2023-02-26T03:14:40.261Z,-1.10
2023-02-26T03:17:15.211Z,-1.30
2023-02-26T03:19:49.367Z,-1.20
2023-02-26T03:22:20.126Z,-1.40
2023-02-26T03:24:50.919Z,-1.60
2023-02-26T03:27:22.282Z,-1.50
2023-02-26T03:29:53.477Z,-1.40
2023-02-26T03:32:24.466Z,-1.30
2023-02-26T03:34:55.502Z,-1.50
2023-02-26T03:37:24.982Z,-1.50
2023-02-26T03:39:53.921Z,-1.60
2023-02-26T03:42:23.984Z,-1.60
2023-02-26T03:44:53.546Z,-1.50
2023-02-26T03:47:21.422Z,-1.60
2023-02-26T03:49:51.277Z,-1.70
2023-02-26T03:52:20.704Z,-1.60
2023-02-26T03:54:51.353Z,-1.60
2023-02-26T03:57:19.258Z,-1.60
2023-02-26T03:59:47.236Z,-1.60
2023-02-26T04:02:49.838Z,-1.60
2023-02-26T04:09:06.327Z,-1.70
2023-02-26T04:15:22.056Z,-1.70
2023-02-26T04:17:49.947Z,-1.60
2023-02-26T04:20:17.983Z,-1.60
2023-02-26T04:22:45.850Z,-1.70
2023-02-26T04:25:15.129Z,-1.80
2023-02-26T04:27:42.953Z,-1.90
2023-02-26T04:30:12.144Z,-1.80
2023-02-26T04:32:40.066Z,-1.70
2023-02-26T04:35:08.779Z,-1.90
2023-02-26T04:37:36.657Z,-1.80
2023-02-26T04:40:05.574Z,-1.70
2023-02-26T04:42:34.832Z,-1.70
2023-02-26T04:45:02.987Z,-1.90
2023-02-26T04:47:31.028Z,-1.90
2023-02-26T04:49:58.825Z,-1.80
2023-02-26T04:56:13.832Z,-1.80
2023-02-26T04:58:43.991Z,-1.90
2023-02-26T05:01:13.759Z,-1.80
2023-02-26T05:03:41.664Z,-1.80
2023-02-26T05:06:09.589Z,-1.90
2023-02-26T05:08:41.561Z,-1.90
2023-02-26T05:11:09.489Z,-1.80
2023-02-26T05:13:37.327Z,-1.90
2023-02-26T05:16:07.536Z,-1.90
2023-02-26T05:18:35.364Z,-1.90
2023-02-26T05:21:03.177Z,-1.90
2023-02-26T05:23:31.014Z,-2.10
2023-02-26T05:25:59.022Z,-2.10
2023-02-26T05:28:27.191Z,-2.10
2023-02-26T05:30:55.202Z,-2.00
2023-02-26T05:33:24.702Z,-2.00
2023-02-26T05:35:52.886Z,-2.10
2023-02-26T05:38:21.054Z,-2.10
2023-02-26T05:40:48.982Z,-2.10
2023-02-26T05:43:17.017Z,-2.10
2023-02-26T05:45:44.823Z,-2.20
2023-02-26T05:48:13.435Z,-2.10
2023-02-26T05:50:42.614Z,-2.10
2023-02-26T05:53:10.600Z,-2.20
2023-02-26T05:55:38.531Z,-2.30
2023-02-26T05:58:06.451Z,-2.20
2023-02-26T06:00:34.352Z,-2.20
2023-02-26T06:03:02.689Z,-2.20
2023-02-26T06:05:30.555Z,-2.20
2023-02-26T06:07:59.801Z,-2.20
2023-02-26T06:10:27.672Z,-2.20
2023-02-26T06:12:55.560Z,-2.30
2023-02-26T06:15:23.406Z,-2.30
2023-02-26T06:17:51.378Z,-2.20
2023-02-26T06:20:19.321Z,-2.30
2023-02-26T06:22:47.281Z,-2.40
2023-02-26T06:25:17.146Z,-2.30
2023-02-26T06:27:45.070Z,-2.30
2023-02-26T06:30:13.731Z,-2.20
2023-02-26T06:32:41.783Z,-2.30
2023-02-26T06:35:10.471Z,-2.20
2023-02-26T06:37:38.364Z,-2.10
2023-02-26T06:40:07.456Z,-2.00
2023-02-26T06:42:36.652Z,-1.90
2023-02-26T06:45:05.467Z,-2.00
2023-02-26T06:47:33.293Z,-2.10
2023-02-26T06:50:02.868Z,-2.10
2023-02-26T06:52:30.688Z,-2.00
2023-02-26T06:54:58.489Z,-1.90
2023-02-26T06:57:26.296Z,-1.90
2023-02-26T06:59:55.557Z,-2.00
2023-02-26T07:02:24.145Z,-2.00
2023-02-26T07:04:51.996Z,-2.10
2023-02-26T07:07:19.760Z,-2.10
2023-02-26T07:09:47.576Z,-2.10
2023-02-26T07:12:15.433Z,-2.10
2023-02-26T07:14:45.017Z,-2.30
2023-02-26T07:17:20.337Z,-2.30
2023-02-26T07:19:48.573Z,-2.20
2023-02-26T07:22:16.496Z,-2.10
2023-02-26T07:24:44.355Z,-2.10
2023-02-26T07:27:12.339Z,-2.30
2023-02-26T07:29:40.121Z,-2.10
2023-02-26T07:32:07.914Z,-2.10
2023-02-26T07:34:37.158Z,-1.40
2023-02-26T07:37:04.883Z,-0.70
2023-02-26T07:39:32.679Z,-1.10
2023-02-26T07:42:00.490Z,-1.50
2023-02-26T07:44:28.264Z,-1.50
2023-02-26T07:46:56.067Z,-1.70
2023-02-26T07:49:24.172Z,-1.80
2023-02-26T07:51:53.472Z,-1.90
2023-02-26T07:54:21.276Z,-2.00
2023-02-26T07:56:49.072Z,-1.90
2023-02-26T07:59:16.854Z,-2.00
2023-02-26T08:01:44.732Z,-2.00
2023-02-26T08:08:02.153Z,-2.10
2023-02-26T08:10:30.019Z,-2.00
2023-02-26T08:12:57.766Z,-2.00
2023-02-26T08:15:25.696Z,-1.90
2023-02-26T08:17:53.553Z,-2.00
2023-02-26T08:20:21.493Z,-2.00
2023-02-26T08:22:49.256Z,-1.70
2023-02-26T08:25:18.834Z,-1.80
2023-02-26T08:27:46.618Z,-1.60
2023-02-26T08:30:15.197Z,-1.70
2023-02-26T08:32:43.064Z,-1.80
2023-02-26T08:35:11.143Z,-1.60
2023-02-26T08:37:39.307Z,-1.60
2023-02-26T08:40:08.880Z,-1.60
2023-02-26T08:42:38.049Z,-1.60
2023-02-26T08:45:06.682Z,-1.70
2023-02-26T08:47:39.356Z,-1.70
2023-02-26T08:50:07.883Z,-1.80
2023-02-26T08:52:35.660Z,-1.70
2023-02-26T08:55:03.455Z,-1.40
2023-02-26T08:57:31.278Z,-1.30
2023-02-26T09:00:00.423Z,-1.30
2023-02-26T09:02:28.366Z,-1.30
2023-02-26T09:04:56.172Z,-1.40
2023-02-26T09:07:23.935Z,-1.40
2023-02-26T09:09:51.720Z,-1.30
2023-02-26T09:12:19.502Z,-1.40
2023-02-26T09:14:47.300Z,-1.50
2023-02-26T09:17:16.418Z,-1.40
2023-02-26T09:19:44.229Z,-1.30
2023-02-26T09:22:12.053Z,-1.30
2023-02-26T09:24:39.883Z,-1.50
2023-02-26T09:27:07.780Z,-1.60
2023-02-26T09:29:35.651Z,-1.30
2023-02-26T09:32:05.256Z,-1.10
2023-02-26T09:34:34.445Z,-1.20
2023-02-26T09:37:02.225Z,-1.40
2023-02-26T09:39:29.993Z,-1.40
2023-02-26T09:41:59.434Z,-1.20
2023-02-26T09:44:29.138Z,-1.20
2023-02-26T09:47:01.822Z,-1.40
2023-02-26T09:49:35.818Z,-1.20
2023-02-26T09:52:06.630Z,-1.20
2023-02-26T09:54:37.691Z,-1.10
2023-02-26T09:57:05.503Z,-1.00
2023-02-26T09:59:34.461Z,-1.10
2023-02-26T10:02:05.806Z,-1.00
2023-02-26T10:04:49.856Z,-0.90
2023-02-26T10:07:22.113Z,-1.00
2023-02-26T10:09:59.663Z,-1.10
2023-02-26T10:12:28.626Z,-0.90
2023-02-26T10:14:58.906Z,-0.80
2023-02-26T10:17:31.408Z,-0.70
2023-02-26T10:20:02.105Z,-1.20
2023-02-26T10:22:31.828Z,-1.00
2023-02-26T10:25:01.404Z,-1.00
2023-02-26T10:27:38.512Z,-0.90
2023-02-26T10:30:08.330Z,-0.90
2023-02-26T10:32:38.167Z,-0.90
2023-02-26T10:35:09.778Z,-0.80
2023-02-26T10:37:43.779Z,-0.90
2023-02-26T10:40:14.487Z,-1.00
2023-02-26T10:42:44.325Z,-0.80
2023-02-26T10:45:37.304Z,-0.60
2023-02-26T10:48:15.381Z,-0.80
2023-02-26T10:50:47.303Z,-1.10
2023-02-26T10:53:15.169Z,-1.20
2023-02-26T10:55:43.892Z,-1.00
2023-02-26T10:58:14.319Z,-0.90
2023-02-26T11:00:42.703Z,-1.00
2023-02-26T11:03:14.234Z,-0.80
2023-02-26T11:05:42.054Z,-0.60
2023-02-26T11:08:14.660Z,-0.50
2023-02-26T11:10:44.146Z,-0.70
2023-02-26T11:13:12.973Z,-0.90
2023-02-26T11:15:41.335Z,-0.70
2023-02-26T11:18:13.102Z,-0.60
2023-02-26T11:20:42.084Z,-0.40
2023-02-26T11:23:14.101Z,-0.50
2023-02-26T11:25:41.864Z,-0.30
2023-02-26T11:28:20.226Z,-0.30
2023-02-26T11:30:49.394Z,-0.10
2023-02-26T11:33:18.830Z,-0.10
2023-02-26T11:35:47.011Z,-0.20
2023-02-26T11:38:19.985Z,-0.30
2023-02-26T11:40:48.682Z,-0.30
2023-02-26T11:43:18.295Z,-0.70
2023-02-26T11:45:48.346Z,-0.70
2023-02-26T11:48:17.367Z,-0.50
2023-02-26T11:50:47.187Z,-0.40
2023-02-26T11:53:21.406Z,-0.50
2023-02-26T11:55:52.534Z,-0.50
2023-02-26T11:58:22.116Z,-0.60
2023-02-26T12:00:50.522Z,-0.40
2023-02-26T12:03:19.836Z,-0.20
2023-02-26T12:05:47.760Z,-0.30
2023-02-26T12:08:21.539Z,-0.40
2023-02-26T12:10:54.437Z,-0.50
2023-02-26T12:13:26.567Z,-0.30
2023-02-26T12:15:57.064Z,-0.20
2023-02-26T12:18:33.100Z,-0.20
2023-02-26T12:21:09.891Z,-0.30
2023-02-26T12:24:01.020Z,-0.20
2023-02-26T12:26:30.096Z,-0.20
2023-02-26T12:29:24.013Z,-0.20
2023-02-26T12:32:16.617Z,0.00
2023-02-26T12:34:59.202Z,-0.10
2023-02-26T12:37:33.876Z,-0.50
2023-02-26T12:40:11.615Z,-0.40
2023-02-26T12:42:45.242Z,-0.50
2023-02-26T12:45:28.717Z,-0.60
2023-02-26T12:48:16.316Z,-0.40
2023-02-26T12:50:53.197Z,0.00
2023-02-26T12:53:43.595Z,0.30
2023-02-26T12:56:29.829Z,0.50
2023-02-26T12:59:12.134Z,0.30
2023-02-26T13:02:10.221Z,0.60
2023-02-26T13:04:45.357Z,0.60
2023-02-26T13:07:33.696Z,0.60
2023-02-26T13:10:04.679Z,0.40
2023-02-26T13:12:40.305Z,0.50
2023-02-26T13:15:20.146Z,0.80
2023-02-26T13:17:52.748Z,0.80
2023-02-26T13:20:24.161Z,0.70
2023-02-26T13:22:54.493Z,0.80
2023-02-26T13:25:26.362Z,1.00
2023-02-26T13:27:55.891Z,1.10
2023-02-26T13:30:26.799Z,1.30
2023-02-26T13:32:55.955Z,1.20
2023-02-26T13:35:27.952Z,0.90
2023-02-26T13:37:56.892Z,1.90
2023-02-26T13:40:43.553Z,2.30
2023-02-26T13:43:28.676Z,1.40
2023-02-26T13:46:01.898Z,1.20
2023-02-26T13:48:39.048Z,0.90
2023-02-26T13:51:08.860Z,0.80
2023-02-26T13:53:55.296Z,0.40
2023-02-26T13:56:43.016Z,0.50
2023-02-26T14:02:19.145Z,0.30
2023-02-26T14:04:51.606Z,0.10
2023-02-26T14:07:19.524Z,0.20
2023-02-26T14:09:55.363Z,0.20
2023-02-26T14:12:36.397Z,0.10
2023-02-26T14:15:28.039Z,-0.10
2023-02-26T14:18:04.434Z,0.00
2023-02-26T14:20:32.531Z,0.10
2023-02-26T14:23:30.146Z,0.10
2023-02-26T14:26:02.260Z,0.10
2023-02-26T14:28:43.605Z,0.10
2023-02-26T14:31:22.122Z,0.30
2023-02-26T14:34:01.801Z,0.00
2023-02-26T14:36:46.406Z,0.10
2023-02-26T14:39:25.879Z,0.10
2023-02-26T14:41:56.247Z,0.20
2023-02-26T14:44:26.530Z,0.10
2023-02-26T14:46:54.402Z,0.30
2023-02-26T14:49:28.333Z,0.30
2023-02-26T14:52:06.507Z,0.40
2023-02-26T14:54:48.776Z,0.60
2023-02-26T14:57:20.685Z,0.60
2023-02-26T14:59:59.341Z,0.80
2023-02-26T15:02:29.468Z,0.90
2023-02-26T15:05:21.964Z,0.90
2023-02-26T15:08:08.861Z,1.10
2023-02-26T15:10:44.768Z,1.10
2023-02-26T15:13:30.105Z,1.00
2023-02-26T15:15:58.776Z,0.80
2023-02-26T15:18:39.094Z,0.70
2023-02-26T15:21:11.526Z,0.70
2023-02-26T15:23:43.204Z,0.60
2023-02-26T15:26:19.164Z,0.70
2023-02-26T15:28:47.090Z,0.40
2023-02-26T15:31:15.007Z,0.00
2023-02-26T15:33:42.949Z,-0.10
2023-02-26T15:36:14.559Z,-0.20
2023-02-26T15:38:43.874Z,-0.30
2023-02-26T15:41:11.913Z,-0.30
2023-02-26T15:43:39.774Z,-0.30
2023-02-26T15:46:08.042Z,-0.30
2023-02-26T15:48:37.465Z,-0.40
2023-02-26T15:51:07.059Z,-0.30
2023-02-26T15:53:37.895Z,-0.50
2023-02-26T15:56:07.233Z,-0.50
2023-02-26T15:58:37.604Z,-0.60
2023-02-26T16:01:05.997Z,-0.70
2023-02-26T16:03:34.827Z,-0.50
2023-02-26T16:06:02.723Z,-0.50
2023-02-26T16:08:30.659Z,-0.60
2023-02-26T16:11:00.689Z,-0.70
2023-02-26T16:13:30.537Z,-0.60
2023-02-26T16:16:01.027Z,-0.70
2023-02-26T16:18:28.849Z,-0.70
2023-02-26T16:20:58.074Z,-0.90
2023-02-26T16:23:26.938Z,-0.70
2023-02-26T16:25:56.191Z,-0.70
2023-02-26T16:28:27.754Z,-0.90
2023-02-26T16:30:57.123Z,-0.80
2023-02-26T16:33:26.131Z,-0.90
2023-02-26T16:35:55.849Z,-0.90
2023-02-26T16:38:26.002Z,-1.00
2023-02-26T16:40:58.728Z,-0.90
2023-02-26T16:43:51.956Z,-0.80
2023-02-26T16:46:23.048Z,-1.00
2023-02-26T16:48:53.241Z,-1.00
2023-02-26T16:51:22.692Z,-1.00
2023-02-26T16:53:51.115Z,-1.00
2023-02-26T16:56:19.788Z,-1.20
2023-02-26T16:58:52.502Z,-1.10
2023-02-26T17:01:20.644Z,-1.10
2023-02-26T17:03:49.385Z,-1.20
2023-02-26T17:06:18.992Z,-1.10
2023-02-26T17:08:49.126Z,-1.10
2023-02-26T17:11:21.340Z,-1.10
2023-02-26T17:14:10.697Z,-1.30
2023-02-26T17:16:38.475Z,-1.20
2023-02-26T17:19:06.497Z,-1.20
2023-02-26T17:21:42.310Z,-1.10
2023-02-26T17:24:11.682Z,-1.30
2023-02-26T17:26:39.448Z,-1.40
2023-02-26T17:29:09.273Z,-1.30
2023-02-26T17:31:37.160Z,-1.50
2023-02-26T17:34:07.261Z,-1.60
2023-02-26T17:36:35.099Z,-1.60
2023-02-26T17:39:02.841Z,-1.60
2023-02-26T17:41:31.407Z,-1.70
2023-02-26T17:43:59.177Z,-1.80
2023-02-26T17:46:28.464Z,-1.80
2023-02-26T17:48:56.313Z,-1.80
2023-02-26T17:51:24.533Z,-1.80
2023-02-26T17:53:52.322Z,-1.90
2023-02-26T17:56:25.230Z,-1.90
2023-02-26T17:58:54.521Z,-1.90
2023-02-26T18:01:23.492Z,-2.00
2023-02-26T18:03:54.520Z,-1.90
2023-02-26T18:06:22.469Z,-1.90
2023-02-26T18:08:50.406Z,-1.50
2023-02-26T18:11:19.930Z,-1.80
2023-02-26T18:13:47.861Z,-1.90
2023-02-26T18:16:18.010Z,-1.50
2023-02-26T18:18:46.033Z,-1.60
2023-02-26T18:21:15.228Z,-1.50
2023-02-26T18:23:43.153Z,-1.70
2023-02-26T18:26:11.237Z,-1.60
2023-02-26T18:28:39.106Z,-1.60
2023-02-26T18:31:09.139Z,-1.70
2023-02-26T18:33:38.686Z,-1.70
2023-02-26T18:36:07.074Z,-1.60
2023-02-26T18:38:36.332Z,-1.60
2023-02-26T18:41:04.125Z,-1.50
2023-02-26T18:43:31.945Z,-1.50
2023-02-26T18:46:01.957Z,-1.50
2023-02-26T18:48:29.763Z,-1.50
2023-02-26T18:50:59.320Z,-1.60
2023-02-26T18:53:27.666Z,-1.60
2023-02-26T18:55:58.101Z,-1.80
2023-02-26T18:58:26.015Z,-1.70
2023-02-26T19:00:53.752Z,-1.60
2023-02-26T19:03:21.540Z,-1.60
2023-02-26T19:05:56.939Z,-1.60
2023-02-26T19:08:24.689Z,-1.70
2023-02-26T19:10:52.433Z,-1.60
2023-02-26T19:13:21.624Z,-1.70
2023-02-26T19:15:49.579Z,-1.80
2023-02-26T19:18:17.400Z,-1.70
2023-02-26T19:20:45.151Z,-1.70
2023-02-26T19:23:12.979Z,-1.90
2023-02-26T19:25:42.789Z,-1.80
2023-02-26T19:28:10.861Z,-1.80
2023-02-26T19:30:40.046Z,-1.70
2023-02-26T19:33:07.867Z,-1.60
2023-02-26T19:35:35.804Z,-1.60
2023-02-26T19:38:03.541Z,-1.60
2023-02-26T19:40:31.321Z,-1.60
2023-02-26T19:42:59.076Z,-1.50
2023-02-26T19:45:26.865Z,-1.50
2023-02-26T19:47:56.203Z,-1.40
2023-02-26T19:50:25.530Z,-1.50
2023-02-26T19:52:53.365Z,-1.60
2023-02-26T19:55:21.418Z,-1.60
2023-02-26T19:57:49.428Z,-1.50
2023-02-26T20:00:17.364Z,-1.60
2023-02-26T20:02:45.889Z,-1.50
2023-02-26T20:05:17.058Z,-1.50
2023-02-26T20:07:45.101Z,-1.40
2023-02-26T20:10:13.324Z,-1.50
2023-02-26T20:12:41.135Z,-1.50
2023-02-26T20:15:09.779Z,-1.70
2023-02-26T20:17:38.177Z,-1.70
2023-02-26T20:20:07.011Z,-1.80
2023-02-26T20:22:36.215Z,-1.80
2023-02-26T20:25:04.102Z,-1.90
2023-02-26T20:27:31.968Z,-2.00
2023-02-26T20:29:59.766Z,-2.00
2023-02-26T20:32:27.603Z,-1.90
2023-02-26T20:34:55.438Z,-2.00
2023-02-26T20:37:23.236Z,-2.10
2023-02-26T20:39:52.425Z,-2.10
2023-02-26T20:42:20.224Z,-2.00
2023-02-26T20:44:48.050Z,-2.20
2023-02-26T20:47:15.820Z,-2.20
2023-02-26T20:49:43.683Z,-2.20
2023-02-26T20:52:11.481Z,-2.10
2023-02-26T20:54:39.371Z,-2.10
2023-02-26T20:57:08.490Z,-2.00
2023-02-26T20:59:36.273Z,-2.00
2023-02-26T21:02:04.191Z,-2.00
2023-02-26T21:04:31.969Z,-2.10
2023-02-26T21:07:12.553Z,-2.00
2023-02-26T21:09:40.420Z,-2.10
2023-02-26T21:12:09.527Z,-2.10
2023-02-26T21:14:37.430Z,-2.10
2023-02-26T21:17:05.286Z,-1.90
2023-02-26T21:19:33.140Z,-1.80
2023-02-26T21:22:01.922Z,-1.90
2023-02-26T21:24:29.709Z,-1.80
2023-02-26T21:26:57.514Z,-1.90
2023-02-26T21:29:26.886Z,-1.90
2023-02-26T21:31:57.104Z,-1.90
2023-02-26T21:34:33.673Z,-2.00
2023-02-26T21:37:01.942Z,-2.00
2023-02-26T21:39:30.647Z,-2.10
2023-02-26T21:41:59.235Z,-2.00
2023-02-26T21:44:28.452Z,-1.90
2023-02-26T21:46:57.343Z,-1.90
2023-02-26T21:49:25.297Z,-1.90
2023-02-26T21:51:53.215Z,-1.90
2023-02-26T21:54:20.985Z,-1.90
2023-02-26T21:56:48.776Z,-2.00
2023-02-26T21:59:16.539Z,-2.00
2023-02-26T22:01:45.744Z,-1.80
2023-02-26T22:04:13.525Z,-0.60
2023-02-26T22:06:41.440Z,-1.20
2023-02-26T22:09:09.296Z,-1.50
2023-02-26T22:11:37.059Z,-1.50
2023-02-26T22:14:04.842Z,-1.50
2023-02-26T22:16:32.690Z,-1.70
2023-02-26T22:19:01.842Z,-1.60
2023-02-26T22:21:29.723Z,-1.60
2023-02-26T22:23:57.566Z,-1.60
2023-02-26T22:26:25.361Z,-1.70
2023-02-26T22:28:53.134Z,-1.70
2023-02-26T22:31:21.036Z,-1.80
2023-02-26T22:33:48.856Z,-1.90
2023-02-26T22:36:18.089Z,-1.80
2023-02-26T22:38:46.396Z,-1.80
2023-02-26T22:41:14.265Z,-1.70
2023-02-26T22:43:42.097Z,-1.70
2023-02-26T22:46:09.995Z,-1.70
2023-02-26T22:48:38.055Z,-1.80
2023-02-26T22:51:06.171Z,-1.70
2023-02-26T22:53:35.310Z,-1.80
2023-02-26T22:56:03.194Z,-1.70
2023-02-26T22:58:30.992Z,-1.70
2023-02-26T23:01:02.132Z,-1.70
2023-02-26T23:03:30.102Z,-1.70
2023-02-26T23:05:58.511Z,-1.80
2023-02-26T23:08:26.742Z,-1.80
2023-02-26T23:10:56.513Z,-1.70
2023-02-26T23:13:24.455Z,-1.60
2023-02-26T23:15:52.269Z,-1.70
2023-02-26T23:18:20.178Z,-1.70
2023-02-26T23:20:48.669Z,-1.80
2023-02-26T23:23:16.532Z,-1.70
2023-02-26T23:25:44.306Z,-1.70
2023-02-26T23:28:13.526Z,-1.70
2023-02-26T23:30:41.399Z,-1.70
2023-02-26T23:33:10.192Z,-1.70
2023-02-26T23:35:37.996Z,-1.70
2023-02-26T23:38:06.019Z,-1.70
2023-02-26T23:40:33.881Z,-1.60
2023-02-26T23:43:01.666Z,-1.60
2023-02-26T23:45:30.757Z,-1.60
2023-02-26T23:47:58.534Z,-1.80
2023-02-26T23:50:26.305Z,-1.90
2023-02-26T23:52:54.088Z,-1.80
2023-02-26T23:55:21.922Z,-1.70
2023-02-26T23:57:49.732Z,-1.70
